createdAt,value
2018-12-07T00:00:39.347Z,0.00
2018-12-07T00:01:39.332Z,0.00
2018-12-07T00:02:39.321Z,0.00
2018-12-07T00:03:39.314Z,0.00
2018-12-07T00:04:39.299Z,0.00
2018-12-07T00:05:39.292Z,0.00
2018-12-07T00:06:39.273Z,0.00
2018-12-07T00:07:39.262Z,0.00
2018-12-07T00:08:39.258Z,0.00
2018-12-07T00:09:39.325Z,0.00
2018-12-07T00:10:39.229Z,0.00
2018-12-07T00:11:39.214Z,0.00
2018-12-07T00:12:39.201Z,0.00
2018-12-07T00:13:39.197Z,0.00
2018-12-07T00:14:39.178Z,0.00
2018-12-07T00:15:39.167Z,0.00
2018-12-07T00:16:39.159Z,0.00
2018-12-07T00:17:39.150Z,0.00
2018-12-07T00:18:39.131Z,0.00
2018-12-07T00:19:39.122Z,0.00
2018-12-07T00:20:39.107Z,0.00
2018-12-07T00:21:39.095Z,0.00
2018-12-07T00:22:39.084Z,0.00
2018-12-07T00:23:39.081Z,0.00
2018-12-07T00:24:39.060Z,0.00
2018-12-07T00:25:39.058Z,0.00
2018-12-07T00:26:39.043Z,0.00
2018-12-07T00:27:39.031Z,0.00
2018-12-07T00:28:39.015Z,0.00
2018-12-07T00:29:39.001Z,0.00
2018-12-07T00:30:38.993Z,0.00
2018-12-07T00:31:38.980Z,0.00
2018-12-07T00:32:38.967Z,0.00
2018-12-07T00:33:38.956Z,0.00
2018-12-07T00:34:38.946Z,0.00
2018-12-07T00:35:38.941Z,0.00
2018-12-07T00:36:38.951Z,0.00
2018-12-07T00:37:38.910Z,0.00
2018-12-07T00:38:38.900Z,0.00
2018-12-07T00:39:38.891Z,0.00
2018-12-07T00:40:38.875Z,0.00
2018-12-07T00:41:38.867Z,0.00
2018-12-07T00:42:38.851Z,0.00
2018-12-07T00:43:38.846Z,0.00
2018-12-07T00:44:38.827Z,0.00
2018-12-07T00:45:38.815Z,0.00
2018-12-07T00:46:38.811Z,0.00
2018-12-07T00:47:38.816Z,0.00
2018-12-07T00:48:38.780Z,0.00
2018-12-07T00:49:38.770Z,0.00
2018-12-07T00:50:38.756Z,0.00
2018-12-07T00:51:38.748Z,0.00
2018-12-07T00:52:38.733Z,0.00
2018-12-07T00:53:38.722Z,0.00
2018-12-07T00:54:38.711Z,0.00
2018-12-07T00:55:38.710Z,0.00
2018-12-07T00:56:38.686Z,0.00
2018-12-07T00:57:38.676Z,0.00
2018-12-07T00:58:38.665Z,0.00
2018-12-07T00:59:38.652Z,0.00
2018-12-07T01:00:38.640Z,0.00
2018-12-07T01:01:38.630Z,0.00
2018-12-07T01:02:38.616Z,0.00
2018-12-07T01:03:38.604Z,0.00
2018-12-07T01:04:38.597Z,0.00
2018-12-07T01:05:38.581Z,0.00
2018-12-07T01:06:38.575Z,0.00
2018-12-07T01:07:38.580Z,0.00
2018-12-07T01:08:38.577Z,0.00
2018-12-07T01:09:38.581Z,0.00
2018-12-07T01:10:38.527Z,0.00
2018-12-07T01:11:38.523Z,0.00
2018-12-07T01:12:38.526Z,0.00
2018-12-07T01:13:38.533Z,0.00
2018-12-07T01:14:38.478Z,0.00
2018-12-07T01:15:38.466Z,0.00
2018-12-07T01:16:38.455Z,0.00
2018-12-07T01:17:38.443Z,0.00
2018-12-07T01:18:38.434Z,0.00
2018-12-07T01:19:38.421Z,0.00
2018-12-07T01:20:38.409Z,0.00
2018-12-07T01:21:38.404Z,0.00
2018-12-07T01:22:38.386Z,0.00
2018-12-07T01:23:38.383Z,0.00
2018-12-07T01:24:38.364Z,0.00
2018-12-07T01:25:38.354Z,0.00
2018-12-07T01:26:38.342Z,0.00
2018-12-07T01:27:38.335Z,0.00
2018-12-07T01:28:38.345Z,0.00
2018-12-07T01:29:38.318Z,0.00
2018-12-07T01:30:38.296Z,0.00
2018-12-07T01:31:38.283Z,0.00
2018-12-07T01:32:38.273Z,0.00
2018-12-07T01:33:38.267Z,0.00
2018-12-07T01:34:38.249Z,0.00
2018-12-07T01:35:38.239Z,0.00
2018-12-07T01:36:38.227Z,0.00
2018-12-07T01:37:38.223Z,0.00
2018-12-07T01:38:38.205Z,0.00
2018-12-07T01:39:38.201Z,0.00
2018-12-07T01:40:38.192Z,0.00
2018-12-07T01:41:38.170Z,0.00
2018-12-07T01:42:38.158Z,0.00
2018-12-07T01:43:38.161Z,0.00
2018-12-07T01:44:38.142Z,0.00
2018-12-07T01:45:38.125Z,0.00
2018-12-07T01:46:38.115Z,0.00
2018-12-07T01:47:38.102Z,0.00
2018-12-07T01:48:38.100Z,0.00
2018-12-07T01:49:38.085Z,0.00
2018-12-07T01:50:38.071Z,0.00
2018-12-07T01:51:38.064Z,0.00
2018-12-07T01:52:38.053Z,0.00
2018-12-07T01:53:38.035Z,0.00
2018-12-07T01:54:38.024Z,0.00
2018-12-07T01:55:38.016Z,0.00
2018-12-07T01:56:38.001Z,0.00
2018-12-07T01:57:37.994Z,0.00
2018-12-07T01:58:37.977Z,0.00
2018-12-07T01:59:37.965Z,0.00
2018-12-07T02:00:37.960Z,0.00
2018-12-07T02:01:37.942Z,0.00
2018-12-07T02:02:37.932Z,0.00
2018-12-07T02:03:37.986Z,0.00
2018-12-07T02:04:37.912Z,0.00
2018-12-07T02:05:37.898Z,0.00
2018-12-07T02:06:37.893Z,0.00
2018-12-07T02:07:37.876Z,0.00
2018-12-07T02:08:37.868Z,0.00
2018-12-07T02:09:37.853Z,0.00
2018-12-07T02:10:37.843Z,0.00
2018-12-07T02:11:37.833Z,0.00
2018-12-07T02:12:37.820Z,0.00
2018-12-07T02:13:37.817Z,0.00
2018-12-07T02:14:37.800Z,0.00
2018-12-07T02:15:37.795Z,0.00
2018-12-07T02:16:37.775Z,0.00
2018-12-07T02:17:37.765Z,0.00
2018-12-07T02:18:37.757Z,0.00
2018-12-07T02:19:37.741Z,0.00
2018-12-07T02:20:37.731Z,0.00
2018-12-07T02:21:37.722Z,0.00
2018-12-07T02:22:37.707Z,0.00
2018-12-07T02:23:37.694Z,0.00
2018-12-07T02:24:37.681Z,0.00
2018-12-07T02:25:37.674Z,0.00
2018-12-07T02:26:37.663Z,0.00
2018-12-07T02:27:37.653Z,0.00
2018-12-07T02:28:37.639Z,0.00
2018-12-07T02:29:37.630Z,0.00
2018-12-07T02:30:37.613Z,0.00
2018-12-07T02:31:37.600Z,0.00
2018-12-07T02:32:37.591Z,0.00
2018-12-07T02:33:37.578Z,0.00
2018-12-07T02:34:37.565Z,0.00
2018-12-07T02:35:37.556Z,0.00
2018-12-07T02:36:37.542Z,0.00
2018-12-07T02:37:37.532Z,0.00
2018-12-07T02:38:37.531Z,0.00
2018-12-07T02:39:37.509Z,0.00
2018-12-07T02:40:37.505Z,0.00
2018-12-07T02:41:37.487Z,0.00
2018-12-07T02:42:37.476Z,0.00
2018-12-07T02:43:37.463Z,0.00
2018-12-07T02:44:37.454Z,0.00
2018-12-07T02:45:37.443Z,0.00
2018-12-07T02:46:37.431Z,0.00
2018-12-07T02:47:37.417Z,0.00
2018-12-07T02:48:37.408Z,0.00
2018-12-07T02:49:37.394Z,0.00
2018-12-07T02:50:37.383Z,0.00
2018-12-07T02:51:37.371Z,0.00
2018-12-07T02:52:37.363Z,0.00
2018-12-07T02:53:37.353Z,0.00
2018-12-07T02:54:37.338Z,0.00
2018-12-07T02:55:37.331Z,0.00
2018-12-07T02:56:37.318Z,0.00
2018-12-07T02:57:37.303Z,0.00
2018-12-07T02:58:37.297Z,0.00
2018-12-07T02:59:37.286Z,0.00
2018-12-07T03:00:37.273Z,0.00
2018-12-07T03:01:37.258Z,0.00
2018-12-07T03:02:37.246Z,0.00
2018-12-07T03:03:37.236Z,0.00
2018-12-07T03:04:37.230Z,0.00
2018-12-07T03:05:37.213Z,0.00
2018-12-07T03:06:37.201Z,0.00
2018-12-07T03:07:37.195Z,0.00
2018-12-07T03:08:37.191Z,0.00
2018-12-07T03:09:37.171Z,0.00
2018-12-07T03:10:37.159Z,0.00
2018-12-07T03:11:37.146Z,0.00
2018-12-07T03:12:37.135Z,0.00
2018-12-07T03:13:37.123Z,0.00
2018-12-07T03:14:37.109Z,0.00
2018-12-07T03:15:37.105Z,0.00
2018-12-07T03:16:37.096Z,0.00
2018-12-07T03:17:37.083Z,0.00
2018-12-07T03:18:37.064Z,0.00
2018-12-07T03:19:37.053Z,0.00
2018-12-07T03:20:37.044Z,0.00
2018-12-07T03:21:37.031Z,0.00
2018-12-07T03:22:37.019Z,0.00
2018-12-07T03:23:37.021Z,0.00
2018-12-07T03:24:36.994Z,0.00
2018-12-07T03:25:36.984Z,0.00
2018-12-07T03:26:36.982Z,0.00
2018-12-07T03:27:36.959Z,0.00
2018-12-07T03:28:36.950Z,0.00
2018-12-07T03:29:36.945Z,0.00
2018-12-07T03:30:36.927Z,0.00
2018-12-07T03:31:37.038Z,0.00
2018-12-07T03:32:36.906Z,0.00
2018-12-07T03:33:36.901Z,0.00
2018-12-07T03:34:36.880Z,0.00
2018-12-07T03:35:36.869Z,0.00
2018-12-07T03:36:36.858Z,0.00
2018-12-07T03:37:36.847Z,0.00
2018-12-07T03:38:36.881Z,0.00
2018-12-07T03:39:36.825Z,0.00
2018-12-07T03:40:36.811Z,0.00
2018-12-07T03:41:36.815Z,0.00
2018-12-07T03:42:36.788Z,0.00
2018-12-07T03:43:36.777Z,0.00
2018-12-07T03:44:36.763Z,0.00
2018-12-07T03:45:36.756Z,0.00
2018-12-07T03:46:36.753Z,0.00
2018-12-07T03:47:36.735Z,0.00
2018-12-07T03:48:36.720Z,0.00
2018-12-07T03:49:36.708Z,0.00
2018-12-07T03:50:36.704Z,0.00
2018-12-07T03:51:36.691Z,0.00
2018-12-07T03:52:36.673Z,0.00
2018-12-07T03:53:36.667Z,0.00
2018-12-07T03:54:36.651Z,0.00
2018-12-07T03:55:36.643Z,0.00
2018-12-07T03:56:36.633Z,0.00
2018-12-07T03:57:36.621Z,0.00
2018-12-07T03:58:36.613Z,0.00
2018-12-07T03:59:36.603Z,0.00
2018-12-07T04:00:36.588Z,0.00
2018-12-07T04:01:36.572Z,0.00
2018-12-07T04:02:36.561Z,0.00
2018-12-07T04:03:36.563Z,0.00
2018-12-07T04:04:36.548Z,0.00
2018-12-07T04:05:36.529Z,0.00
2018-12-07T04:06:36.519Z,0.00
2018-12-07T04:07:36.506Z,0.00
2018-12-07T04:08:36.495Z,0.00
2018-12-07T04:09:36.484Z,0.00
2018-12-07T04:10:36.502Z,0.00
2018-12-07T04:11:36.461Z,0.00
2018-12-07T04:12:36.450Z,0.00
2018-12-07T04:13:36.437Z,0.00
2018-12-07T04:14:36.431Z,0.00
2018-12-07T04:15:36.423Z,0.00
2018-12-07T04:16:36.406Z,0.00
2018-12-07T04:17:36.395Z,0.00
2018-12-07T04:18:36.383Z,0.00
2018-12-07T04:19:36.375Z,0.00
2018-12-07T04:20:36.362Z,0.00
2018-12-07T04:21:36.350Z,0.00
2018-12-07T04:22:36.340Z,0.00
2018-12-07T04:23:36.331Z,0.00
2018-12-07T04:24:36.315Z,0.00
2018-12-07T04:25:36.306Z,0.00
2018-12-07T04:26:36.294Z,0.00
2018-12-07T04:27:36.281Z,0.00
2018-12-07T04:28:36.346Z,0.00
2018-12-07T04:29:36.261Z,0.00
2018-12-07T04:30:36.254Z,0.00
2018-12-07T04:31:36.243Z,0.00
2018-12-07T04:32:36.233Z,0.00
2018-12-07T04:33:36.215Z,0.00
2018-12-07T04:34:36.212Z,0.00
2018-12-07T04:35:36.194Z,0.00
2018-12-07T04:36:36.184Z,0.00
2018-12-07T04:37:36.170Z,0.00
2018-12-07T04:38:36.165Z,0.00
2018-12-07T04:39:36.151Z,0.00
2018-12-07T04:40:36.137Z,0.00
2018-12-07T04:41:36.134Z,0.00
2018-12-07T04:42:36.121Z,0.00
2018-12-07T04:43:36.103Z,0.00
2018-12-07T04:44:36.091Z,0.00
2018-12-07T04:45:36.081Z,0.00
2018-12-07T04:46:36.070Z,0.00
2018-12-07T04:47:36.061Z,0.00
2018-12-07T04:48:36.045Z,0.00
2018-12-07T04:49:36.034Z,0.00
2018-12-07T04:50:36.040Z,0.00
2018-12-07T04:51:36.012Z,0.00
2018-12-07T04:52:36.000Z,0.00
2018-12-07T04:53:35.994Z,0.00
2018-12-07T04:54:35.982Z,0.00
2018-12-07T04:55:35.967Z,0.00
2018-12-07T04:56:35.956Z,0.00
2018-12-07T04:57:35.958Z,0.00
2018-12-07T04:58:35.942Z,0.00
2018-12-07T04:59:35.928Z,0.00
2018-12-07T05:00:35.911Z,0.00
2018-12-07T05:01:35.902Z,0.00
2018-12-07T05:02:35.888Z,0.00
2018-12-07T05:03:35.877Z,0.00
2018-12-07T05:04:35.873Z,0.00
2018-12-07T05:05:35.862Z,0.00
2018-12-07T05:06:35.846Z,0.00
2018-12-07T05:07:35.832Z,0.00
2018-12-07T05:08:35.822Z,0.00
2018-12-07T05:09:35.812Z,0.00
2018-12-07T05:10:35.802Z,0.00
2018-12-07T05:11:35.792Z,0.00
2018-12-07T05:12:35.781Z,0.00
2018-12-07T05:13:35.775Z,0.00
2018-12-07T05:14:35.755Z,0.00
2018-12-07T05:15:35.747Z,0.00
2018-12-07T05:16:35.736Z,0.00
2018-12-07T05:17:35.729Z,0.00
2018-12-07T05:18:35.716Z,0.00
2018-12-07T05:19:35.708Z,0.00
2018-12-07T05:20:35.688Z,0.00
2018-12-07T05:21:35.687Z,0.00
2018-12-07T05:22:35.666Z,0.00
2018-12-07T05:23:35.657Z,0.00
2018-12-07T05:24:35.650Z,0.00
2018-12-07T05:25:35.631Z,0.00
2018-12-07T05:26:35.622Z,0.00
2018-12-07T05:27:35.608Z,0.00
2018-12-07T05:28:35.599Z,0.00
2018-12-07T05:29:35.589Z,0.00
2018-12-07T05:30:35.575Z,0.00
2018-12-07T05:31:35.570Z,0.00
2018-12-07T05:32:35.552Z,0.00
2018-12-07T05:33:35.547Z,0.00
2018-12-07T05:34:35.535Z,0.00
2018-12-07T05:35:35.525Z,0.00
2018-12-07T05:36:35.514Z,0.00
2018-12-07T05:37:35.502Z,0.00
2018-12-07T05:38:35.485Z,0.00
2018-12-07T05:39:35.477Z,0.00
2018-12-07T05:40:35.463Z,0.00
2018-12-07T05:41:35.453Z,0.00
2018-12-07T05:42:35.448Z,0.00
2018-12-07T05:43:35.428Z,0.00
2018-12-07T05:44:35.418Z,0.00
2018-12-07T05:45:35.442Z,0.00
2018-12-07T05:46:35.399Z,0.00
2018-12-07T05:47:35.386Z,0.00
2018-12-07T05:48:35.381Z,0.00
2018-12-07T05:49:35.363Z,0.00
2018-12-07T05:50:35.364Z,0.00
2018-12-07T05:51:35.346Z,0.00
2018-12-07T05:52:35.328Z,0.00
2018-12-07T05:53:35.316Z,0.00
2018-12-07T05:54:35.307Z,0.00
2018-12-07T05:55:35.293Z,0.00
2018-12-07T05:56:35.282Z,0.00
2018-12-07T05:57:35.273Z,0.00
2018-12-07T05:58:35.313Z,0.00
2018-12-07T05:59:35.248Z,0.00
2018-12-07T06:00:35.244Z,0.00
2018-12-07T06:01:35.231Z,0.00
2018-12-07T06:02:35.215Z,0.00
2018-12-07T06:03:35.203Z,0.00
2018-12-07T06:04:35.193Z,0.00
2018-12-07T06:05:35.187Z,0.00
2018-12-07T06:06:35.172Z,0.00
2018-12-07T06:07:35.164Z,0.00
2018-12-07T06:08:35.146Z,0.00
2018-12-07T06:09:35.143Z,0.00
2018-12-07T06:10:35.124Z,0.00
2018-12-07T06:11:35.118Z,0.00
2018-12-07T06:12:35.103Z,0.00
2018-12-07T06:13:35.095Z,0.00
2018-12-07T06:14:35.084Z,0.00
2018-12-07T06:15:35.070Z,0.00
2018-12-07T06:16:35.058Z,0.00
2018-12-07T06:17:35.044Z,0.00
2018-12-07T06:18:35.034Z,0.00
2018-12-07T06:19:35.022Z,0.00
2018-12-07T06:20:35.013Z,0.00
2018-12-07T06:21:35.000Z,0.00
2018-12-07T06:22:34.988Z,0.00
2018-12-07T06:23:34.978Z,0.00
2018-12-07T06:24:34.967Z,0.00
2018-12-07T06:25:34.972Z,0.00
2018-12-07T06:26:34.950Z,0.00
2018-12-07T06:27:34.938Z,0.00
2018-12-07T06:28:34.920Z,0.00
2018-12-07T06:29:34.919Z,4.00
2018-12-07T06:30:34.898Z,4.00
2018-12-07T06:31:34.888Z,4.00
2018-12-07T06:32:36.333Z,4.00
2018-12-07T06:33:34.865Z,4.00
2018-12-07T06:34:34.857Z,4.00
2018-12-07T06:35:34.847Z,4.00
2018-12-07T06:36:34.830Z,4.00
2018-12-07T06:37:34.828Z,4.00
2018-12-07T06:38:34.814Z,4.00
2018-12-07T06:39:34.799Z,4.00
2018-12-07T06:40:34.786Z,4.00
2018-12-07T06:41:34.776Z,8.00
2018-12-07T06:42:34.763Z,4.00
2018-12-07T06:43:34.752Z,8.00
2018-12-07T06:44:34.740Z,12.00
2018-12-07T06:45:35.278Z,12.00
2018-12-07T06:46:34.718Z,16.00
2018-12-07T06:47:34.716Z,12.00
2018-12-07T06:48:34.715Z,16.00
2018-12-07T06:49:34.722Z,16.00
2018-12-07T06:50:34.724Z,20.00
2018-12-07T06:51:34.662Z,20.00
2018-12-07T06:52:34.666Z,20.00
2018-12-07T06:53:34.675Z,24.00
2018-12-07T06:54:34.674Z,24.00
2018-12-07T06:55:34.621Z,24.00
2018-12-07T06:56:34.606Z,28.00
2018-12-07T06:57:34.594Z,28.00
2018-12-07T06:58:34.582Z,28.00
2018-12-07T06:59:34.571Z,36.00
2018-12-07T07:00:34.562Z,44.00
2018-12-07T07:01:34.553Z,44.00
2018-12-07T07:02:34.541Z,52.00
2018-12-07T07:03:34.527Z,56.00
2018-12-07T07:04:34.521Z,52.00
2018-12-07T07:05:34.505Z,56.00
2018-12-07T07:06:34.497Z,56.00
2018-12-07T07:07:34.482Z,68.00
2018-12-07T07:08:34.472Z,68.00
2018-12-07T07:09:34.459Z,64.00
2018-12-07T07:10:34.454Z,72.00
2018-12-07T07:11:34.442Z,80.00
2018-12-07T07:12:34.426Z,80.00
2018-12-07T07:13:34.421Z,84.00
2018-12-07T07:14:34.408Z,92.00
2018-12-07T07:15:34.396Z,96.00
2018-12-07T07:16:34.382Z,92.00
2018-12-07T07:17:34.370Z,96.00
2018-12-07T07:18:34.366Z,108.00
2018-12-07T07:19:34.349Z,116.00
2018-12-07T07:20:34.336Z,120.00
2018-12-07T07:21:34.335Z,116.00
2018-12-07T07:22:34.314Z,116.00
2018-12-07T07:23:34.304Z,128.00
2018-12-07T07:24:34.292Z,128.00
2018-12-07T07:25:34.282Z,136.00
2018-12-07T07:26:34.271Z,168.00
2018-12-07T07:27:34.262Z,212.00
2018-12-07T07:28:34.250Z,232.00
2018-12-07T07:29:34.235Z,240.00
2018-12-07T07:30:34.226Z,272.00
2018-12-07T07:31:34.212Z,268.00
2018-12-07T07:32:34.211Z,296.00
2018-12-07T07:33:34.197Z,300.00
2018-12-07T07:34:34.180Z,292.00
2018-12-07T07:35:34.172Z,320.00
2018-12-07T07:36:34.155Z,336.00
2018-12-07T07:37:34.149Z,356.00
2018-12-07T07:38:34.136Z,368.00
2018-12-07T07:39:34.123Z,380.00
2018-12-07T07:40:34.112Z,388.00
2018-12-07T07:41:34.104Z,424.00
2018-12-07T07:42:34.089Z,468.00
2018-12-07T07:43:34.079Z,488.00
2018-12-07T07:44:34.069Z,516.00
2018-12-07T07:45:34.081Z,532.00
2018-12-07T07:46:34.045Z,528.00
2018-12-07T07:47:34.036Z,520.00
2018-12-07T07:48:34.023Z,548.00
2018-12-07T07:49:34.011Z,532.00
2018-12-07T07:50:34.001Z,556.00
2018-12-07T07:51:33.994Z,504.00
2018-12-07T07:52:33.976Z,484.00
2018-12-07T07:53:33.966Z,540.00
2018-12-07T07:54:33.955Z,544.00
2018-12-07T07:55:33.943Z,544.00
2018-12-07T07:56:33.932Z,600.00
2018-12-07T07:57:33.922Z,684.00
2018-12-07T07:58:33.912Z,640.00
2018-12-07T07:59:33.906Z,664.00
2018-12-07T08:00:33.889Z,700.00
2018-12-07T08:01:33.876Z,688.00
2018-12-07T08:02:33.875Z,736.00
2018-12-07T08:03:33.862Z,776.00
2018-12-07T08:04:33.842Z,792.00
2018-12-07T08:05:33.834Z,844.00
2018-12-07T08:06:33.821Z,856.00
2018-12-07T08:07:33.809Z,872.00
2018-12-07T08:08:33.805Z,908.00
2018-12-07T08:09:33.787Z,896.00
2018-12-07T08:10:33.780Z,964.00
2018-12-07T08:11:33.772Z,1040.00
2018-12-07T08:12:33.754Z,1084.00
2018-12-07T08:13:33.747Z,1144.00
2018-12-07T08:14:33.736Z,1196.00
2018-12-07T08:15:33.719Z,1216.00
2018-12-07T08:16:33.708Z,1252.00
2018-12-07T08:17:33.696Z,1260.00
2018-12-07T08:18:33.687Z,1280.00
2018-12-07T08:19:33.681Z,1284.00
2018-12-07T08:20:33.663Z,1320.00
2018-12-07T08:21:33.661Z,1328.00
2018-12-07T08:22:33.644Z,1320.00
2018-12-07T08:23:33.630Z,1336.00
2018-12-07T08:24:33.627Z,1336.00
2018-12-07T08:25:33.609Z,1308.00
2018-12-07T08:26:33.602Z,1256.00
2018-12-07T08:27:33.587Z,1316.00
2018-12-07T08:28:33.581Z,1404.00
2018-12-07T08:29:33.563Z,1408.00
2018-12-07T08:30:33.555Z,1340.00
2018-12-07T08:31:33.548Z,1328.00
2018-12-07T08:32:33.534Z,1284.00
2018-12-07T08:33:33.523Z,1392.00
2018-12-07T08:34:33.506Z,1560.00
2018-12-07T08:35:33.497Z,1616.00
2018-12-07T08:36:33.485Z,1616.00
2018-12-07T08:37:33.473Z,1620.00
2018-12-07T08:38:33.474Z,1476.00
2018-12-07T08:39:33.457Z,1448.00
2018-12-07T08:40:33.445Z,1428.00
2018-12-07T08:41:33.428Z,1416.00
2018-12-07T08:42:33.423Z,1376.00
2018-12-07T08:43:33.418Z,1344.00
2018-12-07T08:44:33.397Z,1308.00
2018-12-07T08:45:33.390Z,1340.00
2018-12-07T08:46:33.372Z,1460.00
2018-12-07T08:47:33.360Z,1640.00
2018-12-07T08:48:35.350Z,1936.00
2018-12-07T08:49:33.339Z,1996.00
2018-12-07T08:50:33.325Z,2192.00
2018-12-07T08:51:33.321Z,2444.00
2018-12-07T08:52:33.304Z,2440.00
2018-12-07T08:53:33.293Z,2296.00
2018-12-07T08:54:33.287Z,2340.00
2018-12-07T08:55:33.274Z,2184.00
2018-12-07T08:56:33.265Z,2368.00
2018-12-07T08:57:33.248Z,2360.00
2018-12-07T08:58:33.238Z,2204.00
2018-12-07T08:59:33.224Z,2316.00
2018-12-07T09:00:33.213Z,2484.00
2018-12-07T09:01:33.200Z,2476.00
2018-12-07T09:02:33.192Z,2564.00
2018-12-07T09:03:33.183Z,2340.00
2018-12-07T09:04:33.166Z,2292.00
2018-12-07T09:05:33.158Z,2216.00
2018-12-07T09:06:33.152Z,2224.00
2018-12-07T09:07:33.133Z,2172.00
2018-12-07T09:08:33.120Z,2012.00
2018-12-07T09:09:33.114Z,1756.00
2018-12-07T09:10:33.100Z,1644.00
2018-12-07T09:11:33.089Z,1600.00
2018-12-07T09:12:33.077Z,1616.00
2018-12-07T09:13:33.064Z,1604.00
2018-12-07T09:14:33.068Z,1560.00
2018-12-07T09:15:33.043Z,1488.00
2018-12-07T09:16:33.030Z,1452.00
2018-12-07T09:17:33.021Z,1496.00
2018-12-07T09:18:33.007Z,1500.00
2018-12-07T09:19:33.003Z,1560.00
2018-12-07T09:20:32.986Z,1632.00
2018-12-07T09:21:32.979Z,1756.00
2018-12-07T09:22:32.966Z,1872.00
2018-12-07T09:23:32.952Z,1908.00
2018-12-07T09:24:32.941Z,1920.00
2018-12-07T09:25:32.930Z,2068.00
2018-12-07T09:26:32.917Z,2220.00
2018-12-07T09:27:32.912Z,2464.00
2018-12-07T09:28:32.896Z,2536.00
2018-12-07T09:29:32.886Z,2664.00
2018-12-07T09:30:32.876Z,2520.00
2018-12-07T09:31:32.864Z,2404.00
2018-12-07T09:32:32.853Z,2208.00
2018-12-07T09:33:32.839Z,2172.00
2018-12-07T09:34:32.828Z,2116.00
2018-12-07T09:35:32.816Z,2072.00
2018-12-07T09:36:32.805Z,2228.00
2018-12-07T09:37:32.794Z,2076.00
2018-12-07T09:38:32.784Z,1632.00
2018-12-07T09:39:32.772Z,1692.00
2018-12-07T09:40:32.761Z,1712.00
2018-12-07T09:41:32.750Z,1928.00
2018-12-07T09:42:32.736Z,2040.00
2018-12-07T09:43:32.732Z,2152.00
2018-12-07T09:44:32.713Z,2144.00
2018-12-07T09:45:32.703Z,2036.00
2018-12-07T09:46:32.693Z,2048.00
2018-12-07T09:47:32.681Z,2012.00
2018-12-07T09:48:32.680Z,1968.00
2018-12-07T09:49:32.659Z,2064.00
2018-12-07T09:50:32.647Z,2048.00
2018-12-07T09:51:32.635Z,2072.00
2018-12-07T09:52:32.626Z,2220.00
2018-12-07T09:53:34.390Z,2152.00
2018-12-07T09:54:32.604Z,2052.00
2018-12-07T09:55:32.591Z,1876.00
2018-12-07T09:56:32.579Z,1656.00
2018-12-07T09:57:32.577Z,1608.00
2018-12-07T09:58:32.561Z,1640.00
2018-12-07T09:59:32.545Z,1712.00
2018-12-07T10:00:32.538Z,1680.00
2018-12-07T10:01:32.525Z,1568.00
2018-12-07T10:02:32.535Z,1448.00
2018-12-07T10:03:32.504Z,1344.00
2018-12-07T10:04:32.488Z,1496.00
2018-12-07T10:05:32.477Z,1904.00
2018-12-07T10:06:32.469Z,2220.00
2018-12-07T10:07:32.467Z,2340.00
2018-12-07T10:08:32.450Z,2456.00
2018-12-07T10:09:32.433Z,2464.00
2018-12-07T10:10:32.423Z,2412.00
2018-12-07T10:11:32.412Z,2252.00
2018-12-07T10:12:32.404Z,2380.00
2018-12-07T10:13:32.391Z,2540.00
2018-12-07T10:14:32.381Z,2596.00
2018-12-07T10:15:32.366Z,2796.00
2018-12-07T10:16:32.356Z,2776.00
2018-12-07T10:17:32.344Z,2724.00
2018-12-07T10:18:32.336Z,2892.00
2018-12-07T10:19:32.323Z,3228.00
2018-12-07T10:20:32.314Z,3424.00
2018-12-07T10:21:32.305Z,3244.00
2018-12-07T10:22:32.290Z,3064.00
2018-12-07T10:23:32.274Z,3112.00
2018-12-07T10:24:32.269Z,3224.00
2018-12-07T10:25:32.253Z,3476.00
2018-12-07T10:26:32.240Z,3768.00
2018-12-07T10:27:32.229Z,3784.00
2018-12-07T10:28:32.225Z,3828.00
2018-12-07T10:29:32.205Z,3820.00
2018-12-07T10:30:32.193Z,3724.00
2018-12-07T10:31:32.183Z,3600.00
2018-12-07T10:32:32.171Z,3208.00
2018-12-07T10:33:32.166Z,3236.00
2018-12-07T10:34:32.233Z,3256.00
2018-12-07T10:35:32.143Z,3320.00
2018-12-07T10:36:32.128Z,3268.00
2018-12-07T10:37:32.114Z,3128.00
2018-12-07T10:38:32.116Z,2812.00
2018-12-07T10:39:32.097Z,2656.00
2018-12-07T10:40:32.084Z,2736.00
2018-12-07T10:41:32.074Z,2832.00
2018-12-07T10:42:32.067Z,2664.00
2018-12-07T10:43:32.049Z,2476.00
2018-12-07T10:44:32.035Z,2468.00
2018-12-07T10:45:32.025Z,2368.00
2018-12-07T10:46:32.013Z,2360.00
2018-12-07T10:47:33.116Z,2168.00
2018-12-07T10:48:31.993Z,2260.00
2018-12-07T10:49:31.978Z,2404.00
2018-12-07T10:50:31.967Z,2576.00
2018-12-07T10:51:31.955Z,2592.00
2018-12-07T10:52:31.945Z,2572.00
2018-12-07T10:53:31.933Z,2508.00
2018-12-07T10:54:31.922Z,2476.00
2018-12-07T10:55:31.910Z,2360.00
2018-12-07T10:56:31.903Z,2280.00
2018-12-07T10:57:31.890Z,2240.00
2018-12-07T10:58:31.885Z,2360.00
2018-12-07T10:59:31.870Z,2456.00
2018-12-07T11:00:31.852Z,2456.00
2018-12-07T11:01:31.845Z,2560.00
2018-12-07T11:02:31.830Z,2396.00
2018-12-07T11:03:31.820Z,2232.00
2018-12-07T11:04:31.808Z,2188.00
2018-12-07T11:05:31.795Z,2108.00
2018-12-07T11:06:31.787Z,2092.00
2018-12-07T11:07:31.775Z,2132.00
2018-12-07T11:08:31.767Z,2288.00
2018-12-07T11:09:31.751Z,2396.00
2018-12-07T11:10:31.741Z,2408.00
2018-12-07T11:11:31.730Z,2496.00
2018-12-07T11:12:31.716Z,2460.00
2018-12-07T11:13:31.708Z,2416.00
2018-12-07T11:14:31.693Z,2452.00
2018-12-07T11:15:31.682Z,2560.00
2018-12-07T11:16:31.670Z,2736.00
2018-12-07T11:17:31.659Z,2884.00
2018-12-07T11:18:31.647Z,2972.00
2018-12-07T11:19:31.659Z,3056.00
2018-12-07T11:20:31.628Z,3056.00
2018-12-07T11:21:31.614Z,3120.00
2018-12-07T11:22:31.604Z,3296.00
2018-12-07T11:23:31.597Z,3552.00
2018-12-07T11:24:31.587Z,3432.00
2018-12-07T11:25:31.571Z,3236.00
2018-12-07T11:26:31.558Z,3112.00
2018-12-07T11:27:31.543Z,2992.00
2018-12-07T11:28:31.532Z,2840.00
2018-12-07T11:29:31.522Z,2828.00
2018-12-07T11:30:31.516Z,2688.00
2018-12-07T11:31:31.497Z,2424.00
2018-12-07T11:32:31.492Z,2396.00
2018-12-07T11:33:31.477Z,2472.00
2018-12-07T11:34:31.466Z,2344.00
2018-12-07T11:35:31.452Z,2104.00
2018-12-07T11:36:31.440Z,1932.00
2018-12-07T11:37:31.446Z,1856.00
2018-12-07T11:38:31.419Z,1812.00
2018-12-07T11:39:31.408Z,1788.00
2018-12-07T11:40:31.406Z,1808.00
2018-12-07T11:41:31.383Z,1840.00
2018-12-07T11:42:31.372Z,1888.00
2018-12-07T11:43:31.367Z,1916.00
2018-12-07T11:44:31.353Z,1916.00
2018-12-07T11:45:31.341Z,1948.00
2018-12-07T11:46:31.327Z,1944.00
2018-12-07T11:47:31.314Z,1912.00
2018-12-07T11:48:31.302Z,1940.00
2018-12-07T11:49:31.290Z,1920.00
2018-12-07T11:50:31.280Z,1832.00
2018-12-07T11:51:31.269Z,1684.00
2018-12-07T11:52:31.256Z,1600.00
2018-12-07T11:53:31.246Z,1600.00
2018-12-07T11:54:31.240Z,1648.00
2018-12-07T11:55:31.221Z,1760.00
2018-12-07T11:56:31.212Z,1788.00
2018-12-07T11:57:31.207Z,1840.00
2018-12-07T11:58:31.200Z,1828.00
2018-12-07T11:59:31.178Z,1764.00
2018-12-07T12:00:31.167Z,1756.00
2018-12-07T12:01:31.154Z,1756.00
2018-12-07T12:02:31.142Z,1748.00
2018-12-07T12:03:31.131Z,1684.00
2018-12-07T12:04:31.122Z,1656.00
2018-12-07T12:05:31.111Z,1608.00
2018-12-07T12:06:31.095Z,1652.00
2018-12-07T12:07:32.739Z,1604.00
2018-12-07T12:08:31.076Z,1572.00
2018-12-07T12:09:31.062Z,1496.00
2018-12-07T12:10:31.050Z,1364.00
2018-12-07T12:11:31.041Z,1300.00
2018-12-07T12:12:31.034Z,1240.00
2018-12-07T12:13:31.018Z,1180.00
2018-12-07T12:14:31.005Z,1184.00
2018-12-07T12:15:30.992Z,1192.00
2018-12-07T12:16:30.984Z,1284.00
2018-12-07T12:17:30.970Z,1204.00
2018-12-07T12:18:31.160Z,1104.00
2018-12-07T12:19:30.946Z,1144.00
2018-12-07T12:20:30.939Z,1248.00
2018-12-07T12:21:30.966Z,1264.00
2018-12-07T12:22:30.914Z,1220.00
2018-12-07T12:23:30.900Z,1244.00
2018-12-07T12:24:30.896Z,1196.00
2018-12-07T12:25:30.879Z,1164.00
2018-12-07T12:26:30.866Z,1216.00
2018-12-07T12:27:30.857Z,1244.00
2018-12-07T12:28:30.860Z,1312.00
2018-12-07T12:29:30.858Z,1204.00
2018-12-07T12:30:30.860Z,1212.00
2018-12-07T12:31:30.863Z,1256.00
2018-12-07T12:32:30.807Z,1168.00
2018-12-07T12:33:30.810Z,1288.00
2018-12-07T12:34:30.813Z,1332.00
2018-12-07T12:35:30.819Z,1216.00
2018-12-07T12:36:30.759Z,1108.00
2018-12-07T12:37:30.747Z,1252.00
2018-12-07T12:38:30.735Z,1200.00
2018-12-07T12:39:30.720Z,1088.00
2018-12-07T12:40:30.709Z,1124.00
2018-12-07T12:41:30.697Z,1140.00
2018-12-07T12:42:30.689Z,1244.00
2018-12-07T12:43:30.671Z,1216.00
2018-12-07T12:44:30.661Z,1240.00
2018-12-07T12:45:30.649Z,1280.00
2018-12-07T12:46:30.637Z,1256.00